createdAt,value
2023-03-29T00:00:00.420Z,2.00
2023-03-29T00:01:02.144Z,2.10
2023-03-29T00:02:03.963Z,1.80
2023-03-29T00:03:05.895Z,1.90
2023-03-29T00:04:07.790Z,1.90
2023-03-29T00:05:09.585Z,1.70
2023-03-29T00:06:15.128Z,2.05
2023-03-29T00:07:16.655Z,2.00
2023-03-29T00:08:21.987Z,2.00
2023-03-29T00:09:23.529Z,2.00
2023-03-29T00:10:25.021Z,1.60
2023-03-29T00:11:27.223Z,1.73
2023-03-29T00:12:28.851Z,1.70
2023-03-29T00:13:30.398Z,1.90
2023-03-29T00:14:32.047Z,2.13
2023-03-29T00:15:33.534Z,1.90
2023-03-29T00:16:35.203Z,5.82
2023-03-29T00:17:36.962Z,6.40
2023-03-29T00:18:39.651Z,3.63
2023-03-29T00:19:44.550Z,2.78
2023-03-29T00:20:46.148Z,2.45
2023-03-29T00:21:47.656Z,1.85
2023-03-29T00:22:49.309Z,2.10
2023-03-29T00:23:51.064Z,2.30
2023-03-29T00:24:54.563Z,2.10
2023-03-29T00:25:56.157Z,2.28
2023-03-29T00:26:57.664Z,2.20
2023-03-29T00:27:59.167Z,2.35
2023-03-29T00:29:00.684Z,1.80
2023-03-29T00:30:04.601Z,1.70
2023-03-29T00:31:13.497Z,1.80
2023-03-29T00:32:15.477Z,2.05
2023-03-29T00:33:19.031Z,1.92
2023-03-29T00:34:21.530Z,2.10
2023-03-29T00:35:23.156Z,2.08
2023-03-29T00:36:24.722Z,2.28
2023-03-29T00:37:26.896Z,2.22
2023-03-29T00:38:28.474Z,1.98
2023-03-29T00:39:30.721Z,2.10
2023-03-29T00:40:33.056Z,2.22
2023-03-29T00:41:34.809Z,2.17
2023-03-29T00:42:36.611Z,2.30
2023-03-29T00:43:58.139Z,2.17
2023-03-29T00:45:11.772Z,2.38
2023-03-29T00:46:13.466Z,2.35
2023-03-29T00:47:15.664Z,2.40
2023-03-29T00:48:18.655Z,2.10
2023-03-29T00:50:29.606Z,2.28
2023-03-29T00:51:32.940Z,2.28
2023-03-29T00:52:34.664Z,2.40
2023-03-29T00:53:38.534Z,2.15
2023-03-29T00:54:41.155Z,2.75
2023-03-29T00:56:02.471Z,2.10
2023-03-29T00:57:04.384Z,1.83
2023-03-29T00:58:07.484Z,2.25
2023-03-29T01:00:12.207Z,2.00
2023-03-29T01:01:19.759Z,2.15
2023-03-29T01:02:22.139Z,2.13
2023-03-29T01:03:27.519Z,2.10
2023-03-29T01:04:31.485Z,2.15
2023-03-29T01:05:41.671Z,2.30
2023-03-29T01:06:43.565Z,1.90
2023-03-29T01:07:48.180Z,2.65
2023-03-29T01:08:52.375Z,2.40
2023-03-29T01:10:04.580Z,2.35
2023-03-29T01:11:12.669Z,1.98
2023-03-29T01:12:17.186Z,2.90
2023-03-29T01:13:26.213Z,2.35
2023-03-29T01:15:21.151Z,2.00
2023-03-29T01:16:23.107Z,2.10
2023-03-29T01:17:26.011Z,1.90
2023-03-29T01:18:27.552Z,2.13
2023-03-29T01:19:33.910Z,2.10
2023-03-29T01:20:53.868Z,2.53
2023-03-29T01:21:57.552Z,2.08
2023-03-29T01:23:21.284Z,1.77
2023-03-29T01:24:44.824Z,2.15
2023-03-29T01:26:19.629Z,2.10
2023-03-29T01:27:48.665Z,2.15
2023-03-29T01:28:53.341Z,1.90
2023-03-29T01:29:57.768Z,1.90
2023-03-29T01:31:08.546Z,2.00
2023-03-29T01:32:16.392Z,2.33
2023-03-29T01:33:29.258Z,2.40
2023-03-29T01:34:35.575Z,2.28
2023-03-29T01:35:45.227Z,2.30
2023-03-29T01:36:55.227Z,2.22
2023-03-29T01:38:00.123Z,2.35
2023-03-29T01:39:03.472Z,1.95
2023-03-29T01:40:06.338Z,2.30
2023-03-29T01:41:07.858Z,2.08
2023-03-29T01:42:32.317Z,2.22
2023-03-29T01:43:59.099Z,1.85
2023-03-29T01:45:33.363Z,2.53
2023-03-29T01:46:45.841Z,1.77
2023-03-29T01:47:54.969Z,1.98
2023-03-29T01:50:16.386Z,1.90
2023-03-29T01:51:31.792Z,2.22
2023-03-29T01:52:36.510Z,1.90
2023-03-29T01:53:49.988Z,2.17
2023-03-29T01:54:58.104Z,1.83
2023-03-29T01:56:02.448Z,2.17
2023-03-29T01:57:06.206Z,2.13
2023-03-29T01:58:08.405Z,2.22
2023-03-29T01:59:12.333Z,2.40
2023-03-29T02:00:19.156Z,2.10
2023-03-29T02:01:23.159Z,2.65
2023-03-29T02:02:25.266Z,2.90
2023-03-29T02:03:28.225Z,2.88
2023-03-29T02:05:37.512Z,2.92
2023-03-29T02:06:39.684Z,2.30
2023-03-29T02:07:41.992Z,2.42
2023-03-29T02:08:43.526Z,2.25
2023-03-29T02:09:45.247Z,2.05
2023-03-29T02:10:46.720Z,2.10
2023-03-29T02:11:48.436Z,2.40
2023-03-29T02:12:50.736Z,2.13
2023-03-29T02:13:52.246Z,2.88
2023-03-29T02:14:53.939Z,2.38
2023-03-29T02:15:55.488Z,2.72
2023-03-29T02:16:57.031Z,2.00
2023-03-29T02:17:58.641Z,2.47
2023-03-29T02:19:00.346Z,2.13
2023-03-29T02:20:13.869Z,2.40
2023-03-29T02:21:56.519Z,2.38
2023-03-29T02:23:15.972Z,2.55
2023-03-29T02:24:18.300Z,2.30
2023-03-29T02:25:20.273Z,1.92
2023-03-29T02:26:22.436Z,2.10
2023-03-29T02:27:23.917Z,2.00
2023-03-29T02:28:25.449Z,2.40
2023-03-29T02:29:27.324Z,1.95
2023-03-29T02:30:32.226Z,2.25
2023-03-29T02:31:37.929Z,2.30
2023-03-29T02:33:19.194Z,2.53
2023-03-29T02:34:26.667Z,1.85
2023-03-29T02:35:34.871Z,2.03
2023-03-29T02:36:41.941Z,1.85
2023-03-29T02:37:44.256Z,2.33
2023-03-29T02:38:46.345Z,1.92
2023-03-29T02:39:48.513Z,2.15
2023-03-29T02:40:50.068Z,2.38
2023-03-29T02:41:52.051Z,2.17
2023-03-29T02:42:54.696Z,2.38
2023-03-29T02:43:56.725Z,2.28
2023-03-29T02:44:58.239Z,2.10
2023-03-29T02:45:59.768Z,2.15
2023-03-29T02:47:04.369Z,2.10
2023-03-29T02:48:07.464Z,2.47
2023-03-29T02:49:10.210Z,2.33
2023-03-29T02:50:12.013Z,2.20
2023-03-29T02:51:21.200Z,3.15
2023-03-29T02:53:34.691Z,5.47
2023-03-29T02:54:37.876Z,9.77
2023-03-29T02:55:39.782Z,20.70
2023-03-29T02:56:46.422Z,15.40
2023-03-29T02:57:47.954Z,5.18
2023-03-29T02:58:49.453Z,3.10
2023-03-29T02:59:51.033Z,2.50
2023-03-29T03:00:52.867Z,2.65
2023-03-29T03:01:54.401Z,2.42
2023-03-29T03:02:56.024Z,2.30
2023-03-29T03:03:57.760Z,2.83
2023-03-29T03:04:59.309Z,2.63
2023-03-29T03:06:01.906Z,4.78
2023-03-29T03:07:05.308Z,10.35
2023-03-29T03:08:07.459Z,12.55
2023-03-29T03:09:09.957Z,11.18
2023-03-29T03:10:11.500Z,5.43
2023-03-29T03:11:13.491Z,4.53
2023-03-29T03:12:15.063Z,2.63
2023-03-29T03:13:16.570Z,3.05
2023-03-29T03:14:19.147Z,3.08
2023-03-29T03:15:21.078Z,2.70
2023-03-29T03:16:24.185Z,2.47
2023-03-29T03:17:25.793Z,2.75
2023-03-29T03:18:27.685Z,2.47
2023-03-29T03:19:29.641Z,2.25
2023-03-29T03:20:31.285Z,2.70
2023-03-29T03:21:33.880Z,2.80
2023-03-29T03:22:35.635Z,2.53
2023-03-29T03:23:37.132Z,2.20
2023-03-29T03:24:38.665Z,2.50
2023-03-29T03:25:40.149Z,2.50
2023-03-29T03:26:41.650Z,2.40
2023-03-29T03:27:43.386Z,2.40
2023-03-29T03:28:45.806Z,2.30
2023-03-29T03:29:48.606Z,2.47
2023-03-29T03:30:50.109Z,2.40
2023-03-29T03:31:53.965Z,2.33
2023-03-29T03:32:55.878Z,2.38
2023-03-29T03:33:57.453Z,2.22
2023-03-29T03:34:58.987Z,2.38
2023-03-29T03:36:06.073Z,2.53
2023-03-29T03:37:07.620Z,2.72
2023-03-29T03:38:09.107Z,2.15
2023-03-29T03:39:11.793Z,2.38
2023-03-29T03:40:13.875Z,2.40
2023-03-29T03:41:15.983Z,2.47
2023-03-29T03:42:17.477Z,2.30
2023-03-29T03:43:18.969Z,2.28
2023-03-29T03:44:20.518Z,2.20
2023-03-29T03:45:22.001Z,2.10
2023-03-29T03:46:23.557Z,2.50
2023-03-29T03:47:25.216Z,2.00
2023-03-29T03:48:27.127Z,2.05
2023-03-29T03:49:29.076Z,2.15
2023-03-29T03:50:30.604Z,2.22
2023-03-29T03:51:32.177Z,2.20
2023-03-29T03:52:33.667Z,2.25
2023-03-29T03:53:35.211Z,2.08
2023-03-29T03:54:36.697Z,1.92
2023-03-29T03:55:39.570Z,2.40
2023-03-29T03:56:41.094Z,2.08
2023-03-29T03:57:42.761Z,2.20
2023-03-29T03:58:44.257Z,2.53
2023-03-29T03:59:45.760Z,2.20
2023-03-29T04:00:50.449Z,2.15
2023-03-29T04:01:52.784Z,2.15
2023-03-29T04:02:54.482Z,2.65
2023-03-29T04:03:56.308Z,3.88
2023-03-29T04:04:57.951Z,4.05
2023-03-29T04:06:02.808Z,4.00
2023-03-29T04:07:05.092Z,3.75
2023-03-29T04:08:06.834Z,3.05
2023-03-29T04:09:09.251Z,2.28
2023-03-29T04:10:11.234Z,2.70
2023-03-29T04:11:12.739Z,2.25
2023-03-29T04:12:14.546Z,2.30
2023-03-29T04:13:16.111Z,2.17
2023-03-29T04:14:17.644Z,2.45
2023-03-29T04:15:20.280Z,2.17
2023-03-29T04:16:21.890Z,2.40
2023-03-29T04:17:23.894Z,2.05
2023-03-29T04:18:25.554Z,2.72
2023-03-29T04:19:27.321Z,1.98
2023-03-29T04:20:28.918Z,1.90
2023-03-29T04:21:30.725Z,1.92
2023-03-29T04:22:32.233Z,2.10
2023-03-29T04:23:33.739Z,2.45
2023-03-29T04:24:35.238Z,2.38
2023-03-29T04:25:36.888Z,2.03
2023-03-29T04:26:38.368Z,1.92
2023-03-29T04:27:39.971Z,2.15
2023-03-29T04:28:41.796Z,1.98
2023-03-29T04:29:44.911Z,2.42
2023-03-29T04:30:47.245Z,1.80
2023-03-29T04:31:49.295Z,1.90
2023-03-29T04:32:51.105Z,2.53
2023-03-29T04:33:52.708Z,2.10
2023-03-29T04:34:54.193Z,2.00
2023-03-29T04:35:55.788Z,2.05
2023-03-29T04:36:59.148Z,2.00
2023-03-29T04:38:00.643Z,2.15
2023-03-29T04:39:02.139Z,2.20
2023-03-29T04:40:08.883Z,1.88
2023-03-29T04:41:10.425Z,2.00
2023-03-29T04:42:12.427Z,2.20
2023-03-29T04:43:14.440Z,2.08
2023-03-29T04:44:16.170Z,2.45
2023-03-29T04:45:18.156Z,2.10
2023-03-29T04:46:19.878Z,2.03
2023-03-29T04:47:21.470Z,2.33
2023-03-29T04:48:22.976Z,2.08
2023-03-29T04:49:26.132Z,2.42
2023-03-29T04:50:28.045Z,2.28
2023-03-29T04:51:30.015Z,2.05
2023-03-29T04:52:33.303Z,2.28
2023-03-29T04:53:34.934Z,2.22
2023-03-29T04:54:37.339Z,2.33
2023-03-29T04:55:38.853Z,2.30
2023-03-29T04:56:40.871Z,2.05
2023-03-29T04:57:44.637Z,2.35
2023-03-29T04:58:46.170Z,5.45
2023-03-29T04:59:47.668Z,4.78
2023-03-29T05:00:49.569Z,2.60
2023-03-29T05:01:51.480Z,2.40
2023-03-29T05:02:53.601Z,2.10
2023-03-29T05:03:55.241Z,2.17
2023-03-29T05:04:56.787Z,2.08
2023-03-29T05:06:08.754Z,2.08
2023-03-29T05:07:10.339Z,2.22
2023-03-29T05:08:12.281Z,2.53
2023-03-29T05:09:13.760Z,2.15
2023-03-29T05:10:15.304Z,2.53
2023-03-29T05:11:17.576Z,2.50
2023-03-29T05:12:19.154Z,2.42
2023-03-29T05:13:20.771Z,2.10
2023-03-29T05:14:23.484Z,2.30
2023-03-29T05:15:25.314Z,2.17
2023-03-29T05:16:30.192Z,2.33
2023-03-29T05:17:31.963Z,2.70
2023-03-29T05:18:33.496Z,2.30
2023-03-29T05:19:36.483Z,2.50
2023-03-29T05:21:39.966Z,2.13
2023-03-29T05:22:41.489Z,2.15
2023-03-29T05:23:43.079Z,2.60
2023-03-29T05:24:44.581Z,2.30
2023-03-29T05:25:48.857Z,2.72
2023-03-29T05:26:53.131Z,2.60
2023-03-29T05:27:54.641Z,2.42
2023-03-29T05:28:56.987Z,2.60
2023-03-29T05:29:58.494Z,2.60
2023-03-29T05:31:04.553Z,2.70
2023-03-29T05:32:07.096Z,2.80
2023-03-29T05:33:08.980Z,2.53
2023-03-29T05:34:10.929Z,2.90
2023-03-29T05:35:12.405Z,2.13
2023-03-29T05:36:15.114Z,2.40
2023-03-29T05:37:17.137Z,2.63
2023-03-29T05:38:33.425Z,2.67
2023-03-29T05:39:37.555Z,2.40
2023-03-29T05:40:39.301Z,2.33
2023-03-29T05:41:41.651Z,2.75
2023-03-29T05:42:43.447Z,2.47
2023-03-29T05:43:45.065Z,2.70
2023-03-29T05:44:46.548Z,2.88
2023-03-29T05:45:48.948Z,3.13
2023-03-29T05:46:50.708Z,2.53
2023-03-29T05:47:52.267Z,2.42
2023-03-29T05:48:53.776Z,2.58
2023-03-29T05:49:55.461Z,2.53
2023-03-29T05:50:58.121Z,2.90
2023-03-29T05:52:00.160Z,2.60
2023-03-29T05:53:01.649Z,2.58
2023-03-29T05:54:03.148Z,2.75
2023-03-29T05:55:05.000Z,2.47
2023-03-29T05:56:09.041Z,2.70
2023-03-29T05:57:10.525Z,2.58
2023-03-29T05:58:12.976Z,2.30
2023-03-29T05:59:14.810Z,2.45
2023-03-29T06:00:21.810Z,2.60
2023-03-29T06:01:24.544Z,2.70
2023-03-29T06:02:26.401Z,2.47
2023-03-29T06:03:28.338Z,2.70
2023-03-29T06:04:30.773Z,2.40
2023-03-29T06:05:32.406Z,2.65
2023-03-29T06:06:34.013Z,2.75
2023-03-29T06:07:36.081Z,2.67
2023-03-29T06:08:37.650Z,2.90
2023-03-29T06:09:39.775Z,3.13
2023-03-29T06:10:41.491Z,2.90
2023-03-29T06:11:43.014Z,3.00
2023-03-29T06:12:45.051Z,2.50
2023-03-29T06:13:46.654Z,2.90
2023-03-29T06:14:48.234Z,2.47
2023-03-29T06:15:50.062Z,2.67
2023-03-29T06:16:51.717Z,2.78
2023-03-29T06:17:53.274Z,2.60
2023-03-29T06:18:55.135Z,2.28
2023-03-29T06:19:57.841Z,3.05
2023-03-29T06:20:59.731Z,3.20
2023-03-29T06:22:01.331Z,2.85
2023-03-29T06:23:02.830Z,2.70
2023-03-29T06:24:04.644Z,3.45
2023-03-29T06:25:07.187Z,3.15
2023-03-29T06:26:10.840Z,2.65
2023-03-29T06:27:12.312Z,2.50
2023-03-29T06:28:14.520Z,2.90
2023-03-29T06:29:16.575Z,2.60
2023-03-29T06:30:19.217Z,2.80
2023-03-29T06:31:21.148Z,2.92
2023-03-29T06:32:23.330Z,2.78
2023-03-29T06:33:25.386Z,2.97
2023-03-29T06:34:27.136Z,2.90
2023-03-29T06:35:28.654Z,2.60
2023-03-29T06:36:30.888Z,3.10
2023-03-29T06:37:32.559Z,3.17
2023-03-29T06:38:34.156Z,3.03
2023-03-29T06:39:35.679Z,2.63
2023-03-29T06:40:40.197Z,2.95
2023-03-29T06:41:41.661Z,2.97
2023-03-29T06:42:43.269Z,2.70
2023-03-29T06:43:45.331Z,3.08
2023-03-29T06:44:46.992Z,2.70
2023-03-29T06:45:48.933Z,3.17
2023-03-29T06:46:50.690Z,2.90
2023-03-29T06:47:52.460Z,3.33
2023-03-29T06:48:54.046Z,3.08
2023-03-29T06:49:55.527Z,2.90
2023-03-29T06:50:57.349Z,2.92
2023-03-29T06:51:59.953Z,2.90
2023-03-29T06:53:02.237Z,2.83
2023-03-29T06:54:04.202Z,3.42
2023-03-29T06:55:07.799Z,3.38
2023-03-29T06:56:09.914Z,3.30
2023-03-29T06:57:13.274Z,2.92
2023-03-29T06:58:15.661Z,3.17
2023-03-29T06:59:18.067Z,3.17
2023-03-29T07:00:27.867Z,3.20
2023-03-29T07:01:29.617Z,3.20
2023-03-29T07:02:31.828Z,2.83
2023-03-29T07:03:35.349Z,3.10
2023-03-29T07:04:37.168Z,2.97
2023-03-29T07:05:42.423Z,3.35
2023-03-29T07:06:48.564Z,3.17
2023-03-29T07:08:08.062Z,3.40
2023-03-29T07:09:09.602Z,2.75
2023-03-29T07:10:11.330Z,3.42
2023-03-29T07:11:14.147Z,2.75
2023-03-29T07:12:15.971Z,3.15
2023-03-29T07:13:17.533Z,3.05
2023-03-29T07:14:19.030Z,3.00
2023-03-29T07:15:21.459Z,3.03
2023-03-29T07:16:23.196Z,3.20
2023-03-29T07:17:24.752Z,3.17
2023-03-29T07:18:28.889Z,3.30
2023-03-29T07:19:30.438Z,2.80
2023-03-29T07:20:33.673Z,3.30
2023-03-29T07:21:37.740Z,3.30
2023-03-29T07:22:43.482Z,3.05
2023-03-29T07:23:44.989Z,3.20
2023-03-29T07:24:46.883Z,3.15
2023-03-29T07:25:48.706Z,3.15
2023-03-29T07:27:03.405Z,3.40
2023-03-29T07:28:06.200Z,3.17
2023-03-29T07:29:07.773Z,3.30
2023-03-29T07:30:11.208Z,3.10
2023-03-29T07:31:13.698Z,3.30
2023-03-29T07:32:15.183Z,3.45
2023-03-29T07:33:16.966Z,3.08
2023-03-29T07:34:18.644Z,2.67
2023-03-29T07:35:21.108Z,3.20
2023-03-29T07:36:22.723Z,3.35
2023-03-29T07:37:24.835Z,3.20
2023-03-29T07:38:27.080Z,3.30
2023-03-29T07:39:28.557Z,3.55
2023-03-29T07:40:31.045Z,3.60
2023-03-29T07:41:32.792Z,3.22
2023-03-29T07:42:36.538Z,3.20
2023-03-29T07:43:38.095Z,3.33
2023-03-29T07:44:39.670Z,3.10
2023-03-29T07:45:42.677Z,3.35
2023-03-29T07:47:50.021Z,2.90
2023-03-29T07:48:52.159Z,3.08
2023-03-29T07:49:53.656Z,3.53
2023-03-29T07:50:55.143Z,3.05
2023-03-29T07:51:56.711Z,3.50
2023-03-29T07:52:58.307Z,3.40
2023-03-29T07:53:59.942Z,3.42
2023-03-29T07:55:01.523Z,3.53
2023-03-29T07:56:03.161Z,3.50
2023-03-29T07:57:04.719Z,3.40
2023-03-29T07:58:06.279Z,3.17
2023-03-29T07:59:07.808Z,3.20
2023-03-29T08:00:16.049Z,4.20
2023-03-29T08:01:19.932Z,3.88
2023-03-29T08:02:21.586Z,3.30
2023-03-29T08:03:23.242Z,3.40
2023-03-29T08:04:25.193Z,3.30
2023-03-29T08:05:40.048Z,2.80
2023-03-29T08:06:42.549Z,2.95
2023-03-29T08:07:44.827Z,3.35
2023-03-29T08:08:46.448Z,3.25
2023-03-29T08:09:48.576Z,2.97
2023-03-29T08:10:50.386Z,2.92
2023-03-29T08:11:51.921Z,3.05
2023-03-29T08:12:53.820Z,3.35
2023-03-29T08:13:55.412Z,3.08
2023-03-29T08:14:57.279Z,2.78
2023-03-29T08:15:59.081Z,2.83
2023-03-29T08:17:00.895Z,3.08
2023-03-29T08:18:02.507Z,3.03
2023-03-29T08:19:04.340Z,2.90
2023-03-29T08:20:06.747Z,2.92
2023-03-29T08:21:08.323Z,3.22
2023-03-29T08:22:09.879Z,3.15
2023-03-29T08:23:11.406Z,2.90
2023-03-29T08:24:12.881Z,2.83
2023-03-29T08:25:14.490Z,2.80
2023-03-29T08:26:16.086Z,2.83
2023-03-29T08:27:17.585Z,3.05
2023-03-29T08:28:19.067Z,2.92
2023-03-29T08:29:20.636Z,3.47
2023-03-29T08:30:22.502Z,3.00
2023-03-29T08:31:24.048Z,2.65
2023-03-29T08:32:25.807Z,2.88
2023-03-29T08:33:27.679Z,2.85
2023-03-29T08:34:31.695Z,2.95
2023-03-29T08:35:33.595Z,2.47
2023-03-29T08:36:35.188Z,2.80
2023-03-29T08:37:37.347Z,3.05
2023-03-29T08:38:38.860Z,3.10
2023-03-29T08:39:40.490Z,3.20
2023-03-29T08:40:42.396Z,3.33
2023-03-29T08:42:26.556Z,3.00
2023-03-29T08:43:31.951Z,2.90
2023-03-29T08:44:51.459Z,3.15
2023-03-29T08:46:17.493Z,3.08
2023-03-29T08:47:25.866Z,3.35
2023-03-29T08:48:29.909Z,3.35
2023-03-29T08:49:31.780Z,3.15
2023-03-29T08:50:38.604Z,3.08
2023-03-29T08:51:42.677Z,3.72
2023-03-29T08:52:50.037Z,3.40
2023-03-29T08:54:05.569Z,3.00
2023-03-29T08:55:29.901Z,2.88
2023-03-29T08:56:34.218Z,3.38
2023-03-29T08:57:41.642Z,3.35
2023-03-29T08:58:43.193Z,3.38
2023-03-29T08:59:44.639Z,3.05
2023-03-29T09:00:48.867Z,3.33
2023-03-29T09:01:51.827Z,3.15
2023-03-29T09:04:07.123Z,2.75
2023-03-29T09:05:22.592Z,3.03
2023-03-29T09:06:24.143Z,2.42
2023-03-29T09:07:26.722Z,3.00
2023-03-29T09:08:28.536Z,3.17
2023-03-29T09:09:32.911Z,2.60
2023-03-29T09:10:42.833Z,2.95
2023-03-29T09:11:56.559Z,2.97
2023-03-29T09:13:20.861Z,3.35
2023-03-29T09:14:47.679Z,2.95
2023-03-29T09:16:27.183Z,2.72
2023-03-29T09:17:39.281Z,2.97
2023-03-29T09:19:03.099Z,3.22
2023-03-29T09:20:22.828Z,3.08
2023-03-29T09:21:24.486Z,3.10
2023-03-29T09:22:51.752Z,2.92
2023-03-29T09:24:30.729Z,3.03
2023-03-29T09:25:53.474Z,2.72
2023-03-29T09:27:19.042Z,3.47
2023-03-29T09:28:43.407Z,3.45
2023-03-29T09:29:58.589Z,3.30
2023-03-29T09:32:47.829Z,2.53
2023-03-29T09:33:59.840Z,2.78
2023-03-29T09:35:08.028Z,2.42
2023-03-29T09:36:35.110Z,2.88
2023-03-29T09:37:38.343Z,2.65
2023-03-29T09:38:42.699Z,2.60
2023-03-29T09:39:45.143Z,2.55
2023-03-29T09:40:50.141Z,2.63
2023-03-29T09:41:54.716Z,2.92
2023-03-29T09:42:56.266Z,2.80
2023-03-29T09:43:58.664Z,2.42
2023-03-29T09:45:08.322Z,2.67
2023-03-29T09:46:16.231Z,2.58
2023-03-29T09:47:21.450Z,2.38
2023-03-29T09:48:22.977Z,2.90
2023-03-29T09:49:31.183Z,2.65
2023-03-29T09:50:37.827Z,2.67
2023-03-29T09:51:39.310Z,2.45
2023-03-29T09:52:40.831Z,2.03
2023-03-29T09:53:42.381Z,2.75
2023-03-29T09:54:44.000Z,2.53
2023-03-29T09:55:48.356Z,2.13
2023-03-29T09:56:52.585Z,2.13
2023-03-29T09:58:55.828Z,2.00
2023-03-29T09:59:57.394Z,2.05
2023-03-29T10:01:00.646Z,1.92
2023-03-29T10:02:09.623Z,1.73
2023-03-29T10:03:21.154Z,1.92
2023-03-29T10:04:22.843Z,1.60
2023-03-29T10:05:25.348Z,2.00
2023-03-29T10:06:26.937Z,1.67
2023-03-29T10:07:40.323Z,1.67
2023-03-29T10:08:44.197Z,1.80
2023-03-29T10:09:45.719Z,1.92
2023-03-29T10:10:47.569Z,1.75
2023-03-29T10:11:53.966Z,1.83
2023-03-29T10:12:59.547Z,1.95
2023-03-29T10:14:03.682Z,1.80
2023-03-29T10:15:06.497Z,1.83
2023-03-29T10:16:18.447Z,1.95
2023-03-29T10:17:21.837Z,1.80
2023-03-29T10:18:23.942Z,1.83
2023-03-29T10:19:34.666Z,2.10
2023-03-29T10:20:36.849Z,2.03
2023-03-29T10:21:38.382Z,1.60
2023-03-29T10:22:41.584Z,1.90
2023-03-29T10:23:43.825Z,1.73
2023-03-29T10:24:52.687Z,1.83
2023-03-29T10:25:54.533Z,1.83
2023-03-29T10:27:01.601Z,2.15
2023-03-29T10:28:13.579Z,1.95
2023-03-29T10:29:15.141Z,1.67
2023-03-29T10:30:23.888Z,1.75
2023-03-29T10:31:26.073Z,1.90
2023-03-29T10:32:33.480Z,1.73
2023-03-29T10:33:35.302Z,2.45
2023-03-29T10:34:37.036Z,2.13
2023-03-29T10:35:41.489Z,2.60
2023-03-29T10:36:45.246Z,2.15
2023-03-29T10:37:49.945Z,2.03
2023-03-29T10:38:52.258Z,2.13
2023-03-29T10:39:54.054Z,2.10
2023-03-29T10:41:03.348Z,1.92
2023-03-29T10:42:04.973Z,2.17
2023-03-29T10:43:32.761Z,2.03
2023-03-29T10:44:37.399Z,2.10
2023-03-29T10:45:39.250Z,2.00
2023-03-29T10:46:42.544Z,2.10
2023-03-29T10:47:44.931Z,2.10
2023-03-29T10:48:48.086Z,2.10
2023-03-29T10:49:57.291Z,2.25
2023-03-29T10:51:00.941Z,1.77
2023-03-29T10:52:02.652Z,2.10
2023-03-29T10:53:09.691Z,1.80
2023-03-29T10:54:13.677Z,2.03
2023-03-29T10:55:15.257Z,2.28
2023-03-29T10:56:40.017Z,1.95
2023-03-29T10:57:51.412Z,2.42
2023-03-29T10:59:21.647Z,1.92
2023-03-29T11:00:27.054Z,2.05
2023-03-29T11:01:52.499Z,1.98
2023-03-29T11:03:20.232Z,1.65
2023-03-29T11:04:39.705Z,1.80
2023-03-29T11:05:47.177Z,1.73
2023-03-29T11:07:16.572Z,1.55
2023-03-29T11:08:23.538Z,1.70
2023-03-29T11:09:52.786Z,2.03
2023-03-29T11:11:04.024Z,1.70
2023-03-29T11:12:16.952Z,1.42
2023-03-29T11:13:32.074Z,1.60
2023-03-29T11:14:50.561Z,1.73
2023-03-29T11:16:09.900Z,1.60
2023-03-29T11:17:18.597Z,1.67
2023-03-29T11:18:52.011Z,1.52
2023-03-29T11:20:12.609Z,1.33
2023-03-29T11:21:26.686Z,1.50
2023-03-29T11:22:42.419Z,1.83
2023-03-29T11:24:13.903Z,1.92
2023-03-29T11:25:30.014Z,1.33
2023-03-29T11:26:41.932Z,1.45
2023-03-29T11:28:22.454Z,1.83
2023-03-29T11:29:31.497Z,1.67
2023-03-29T11:31:48.167Z,1.52
2023-03-29T11:33:11.229Z,1.75
2023-03-29T11:34:16.087Z,1.52
2023-03-29T11:35:43.766Z,1.60
2023-03-29T11:36:52.732Z,1.70
2023-03-29T11:38:39.423Z,2.10
2023-03-29T11:40:16.063Z,1.40
2023-03-29T11:41:46.832Z,1.48
2023-03-29T11:42:48.692Z,1.40
2023-03-29T11:43:55.165Z,1.90
2023-03-29T11:44:58.026Z,1.63
2023-03-29T11:46:08.156Z,1.70
2023-03-29T11:47:15.033Z,1.40
2023-03-29T11:48:22.438Z,1.70
2023-03-29T11:49:29.425Z,1.58
2023-03-29T11:50:48.529Z,1.67
2023-03-29T11:52:11.627Z,1.70
2023-03-29T11:53:20.971Z,1.35
2023-03-29T11:54:31.173Z,1.42
2023-03-29T11:55:34.604Z,1.52
2023-03-29T11:56:49.071Z,1.42
2023-03-29T11:57:54.059Z,1.77
2023-03-29T11:58:59.517Z,1.60
2023-03-29T12:00:05.497Z,1.52
2023-03-29T12:01:10.332Z,1.73
2023-03-29T12:02:31.743Z,1.40
2023-03-29T12:03:44.744Z,1.60
2023-03-29T12:04:52.645Z,1.55
2023-03-29T12:06:04.489Z,1.77
2023-03-29T12:07:23.079Z,1.95
2023-03-29T12:08:46.157Z,1.63
2023-03-29T12:09:51.484Z,1.77
2023-03-29T12:11:00.591Z,1.60
2023-03-29T12:12:11.170Z,1.83
2023-03-29T12:13:19.250Z,1.90
2023-03-29T12:14:26.667Z,1.85
2023-03-29T12:15:42.342Z,1.75
2023-03-29T12:17:03.379Z,1.95
2023-03-29T12:18:13.603Z,1.67
2023-03-29T12:19:19.063Z,1.98
2023-03-29T12:20:27.131Z,1.60
2023-03-29T12:21:28.937Z,1.83
2023-03-29T12:22:30.635Z,1.60
2023-03-29T12:23:32.323Z,1.60
2023-03-29T12:24:34.155Z,1.80
2023-03-29T12:25:44.760Z,1.80
2023-03-29T12:27:09.116Z,1.88
2023-03-29T12:28:49.542Z,1.98
2023-03-29T12:30:18.912Z,1.95
2023-03-29T12:31:20.875Z,2.03
2023-03-29T12:33:03.981Z,1.80
2023-03-29T12:34:15.730Z,1.42
2023-03-29T12:35:43.254Z,1.67
2023-03-29T12:36:52.134Z,1.65
2023-03-29T12:38:08.396Z,1.30
2023-03-29T12:39:16.859Z,1.42
2023-03-29T12:40:20.146Z,1.85
2023-03-29T12:41:22.214Z,1.85
2023-03-29T12:42:23.855Z,2.00
2023-03-29T12:43:31.802Z,1.55
2023-03-29T12:44:33.668Z,1.70
2023-03-29T12:45:39.151Z,1.80
2023-03-29T12:46:41.127Z,1.77
2023-03-29T12:47:44.013Z,2.13
2023-03-29T12:48:57.242Z,2.15
2023-03-29T12:49:59.410Z,1.70
2023-03-29T12:51:02.205Z,1.80
2023-03-29T12:52:22.193Z,2.20
2023-03-29T12:53:27.400Z,1.83
2023-03-29T12:54:31.502Z,1.83
2023-03-29T12:55:43.689Z,1.90
2023-03-29T12:57:01.419Z,1.60
2023-03-29T12:58:05.639Z,1.90
2023-03-29T12:59:35.741Z,1.85
2023-03-29T13:00:37.217Z,1.92
2023-03-29T13:01:41.342Z,1.63
2023-03-29T13:02:45.702Z,1.83
2023-03-29T13:03:48.890Z,1.73
2023-03-29T13:04:56.768Z,1.52
2023-03-29T13:06:03.696Z,1.65
2023-03-29T13:07:07.014Z,1.52
2023-03-29T13:08:23.439Z,1.63
2023-03-29T13:09:29.893Z,1.63
2023-03-29T13:10:41.430Z,1.70
2023-03-29T13:11:42.935Z,3.40
2023-03-29T13:12:46.036Z,1.63
2023-03-29T13:13:48.128Z,1.50
2023-03-29T13:14:54.653Z,1.52
2023-03-29T13:15:56.291Z,1.90
2023-03-29T13:17:15.623Z,1.75
2023-03-29T13:18:33.947Z,1.52
2023-03-29T13:20:05.275Z,1.55
2023-03-29T13:21:28.508Z,1.75
2023-03-29T13:22:41.317Z,1.80
2023-03-29T13:23:54.814Z,1.40
2023-03-29T13:25:01.805Z,2.20
2023-03-29T13:26:23.891Z,1.67
2023-03-29T13:27:43.078Z,1.90
2023-03-29T13:29:10.753Z,1.60
2023-03-29T13:30:25.648Z,1.33
2023-03-29T13:31:32.900Z,1.45
2023-03-29T13:32:59.177Z,2.00
2023-03-29T13:34:20.335Z,1.40
2023-03-29T13:35:59.853Z,1.73
2023-03-29T13:37:23.354Z,1.73
2023-03-29T13:38:32.090Z,1.88
2023-03-29T13:39:36.900Z,1.45
2023-03-29T13:40:44.167Z,1.33
2023-03-29T13:41:48.415Z,1.30
2023-03-29T13:43:19.140Z,1.42
2023-03-29T13:44:27.238Z,1.52
2023-03-29T13:45:30.459Z,1.38
2023-03-29T13:46:41.861Z,1.60
2023-03-29T13:47:54.896Z,1.40
2023-03-29T13:49:06.856Z,1.35
2023-03-29T13:50:18.783Z,1.58
2023-03-29T13:51:27.212Z,1.55
2023-03-29T13:52:36.650Z,1.50
2023-03-29T13:54:00.660Z,1.33
2023-03-29T13:55:26.174Z,1.52
2023-03-29T13:57:01.468Z,1.73
2023-03-29T13:58:18.551Z,1.73
2023-03-29T13:59:20.789Z,1.40
2023-03-29T14:00:23.922Z,2.13
2023-03-29T14:01:26.252Z,2.42
2023-03-29T14:02:33.683Z,1.63
2023-03-29T14:03:44.658Z,1.50
2023-03-29T14:04:46.779Z,2.05
2023-03-29T14:05:49.783Z,1.90
2023-03-29T14:06:55.699Z,1.60
2023-03-29T14:07:57.307Z,1.60
2023-03-29T14:09:02.360Z,1.33
2023-03-29T14:10:04.478Z,1.77
2023-03-29T14:11:06.999Z,1.52
2023-03-29T14:12:11.084Z,1.73
2023-03-29T14:13:13.643Z,2.08
2023-03-29T14:14:15.170Z,1.63
2023-03-29T14:15:23.138Z,1.63
2023-03-29T14:16:43.054Z,1.73
2023-03-29T14:17:44.667Z,1.80
2023-03-29T14:18:51.025Z,1.85
2023-03-29T14:19:53.480Z,1.52
2023-03-29T14:20:55.493Z,1.73
2023-03-29T14:21:57.174Z,1.88
2023-03-29T14:22:58.788Z,1.60
2023-03-29T14:24:01.598Z,2.00
2023-03-29T14:25:07.323Z,1.92
2023-03-29T14:26:13.271Z,1.85
2023-03-29T14:27:15.975Z,1.90
2023-03-29T14:28:28.122Z,1.90
2023-03-29T14:29:36.010Z,1.55
2023-03-29T14:30:37.586Z,2.17
2023-03-29T14:31:40.615Z,2.03
2023-03-29T14:32:42.279Z,1.90
2023-03-29T14:33:43.816Z,2.17
2023-03-29T14:34:48.771Z,1.85
2023-03-29T14:35:50.379Z,2.05
2023-03-29T14:36:54.086Z,2.17
2023-03-29T14:37:56.406Z,2.00
2023-03-29T14:39:03.030Z,2.13
2023-03-29T14:40:08.966Z,1.90
2023-03-29T14:41:10.519Z,1.77
2023-03-29T14:42:16.630Z,2.03
2023-03-29T14:43:19.577Z,2.15
2023-03-29T14:45:23.845Z,2.22
2023-03-29T14:46:26.088Z,1.73
2023-03-29T14:47:29.266Z,1.92
2023-03-29T14:48:33.163Z,1.75
2023-03-29T14:49:34.760Z,2.42
2023-03-29T14:50:36.565Z,1.83
2023-03-29T14:51:40.789Z,2.05
2023-03-29T14:52:42.751Z,1.90
2023-03-29T14:53:46.027Z,2.10